Time;durP1;ratioP1;P1;durP2;ratioP2;P2;SDS_P1;SDS_P2;PMS_P1;PMS_P2;Temp;Humidity;BMP_temperature;BMP_pressure;BME280_temperature;BME280_humidity;BME280_pressure;Samples;Min_cycle;Max_cycle;Signal;HPM_P1;HPM_P2
2024/03/22 00:01:10;;;;;;;4.97;2.67;;;;;;;8.40;100.00;101142.13;5033602;28;20373;-70
2024/03/22 00:03:36;;;;;;;3.40;1.73;;;;;;;8.35;100.00;101143.41;5038123;28;20037;-70
2024/03/22 00:06:01;;;;;;;5.47;2.53;;;;;;;8.32;100.00;101145.28;5037379;28;20478;-70
2024/03/22 00:08:27;;;;;;;5.55;2.30;;;;;;;8.36;100.00;101139.88;5029672;28;20111;-70
2024/03/22 00:10:53;;;;;;;4.10;1.70;;;;;;;8.37;100.00;101136.34;5034326;28;20036;-70
2024/03/22 00:13:18;;;;;;;3.90;1.58;;;;;;;8.34;100.00;101136.56;5031215;28;20037;-70
2024/03/22 00:15:45;;;;;;;7.22;1.25;;;;;;;8.26;100.00;101148.31;5037974;28;20035;-70
2024/03/22 00:18:10;;;;;;;2.42;1.60;;;;;;;8.20;100.00;101143.56;5041380;28;20041;-70
2024/03/22 00:20:36;;;;;;;2.65;1.60;;;;;;;8.15;100.00;101143.06;5038969;28;20499;-69
2024/03/22 00:23:01;;;;;;;5.47;1.90;;;;;;;8.26;100.00;101145.72;5038278;28;20041;-69
2024/03/22 00:25:27;;;;;;;4.10;2.22;;;;;;;8.26;100.00;101137.94;5032133;28;20044;-70
2024/03/22 00:27:52;;;;;;;3.58;1.70;;;;;;;8.17;100.00;101141.19;5029921;28;20041;-70
2024/03/22 00:30:18;;;;;;;3.92;2.15;;;;;;;8.07;100.00;101142.81;5037942;28;20037;-70
2024/03/22 00:32:44;;;;;;;4.22;1.75;;;;;;;7.99;100.00;101147.75;5033706;28;20037;-70
2024/03/22 00:35:10;;;;;;;2.97;1.58;;;;;;;7.94;100.00;101144.66;5037511;28;20051;-70
2024/03/22 00:37:36;;;;;;;3.08;1.60;;;;;;;7.92;100.00;101141.34;5031412;28;20029;-70
2024/03/22 00:40:01;;;;;;;6.88;2.17;;;;;;;7.88;100.00;101138.13;5034226;28;20040;-70
2024/03/22 00:42:27;;;;;;;3.85;1.98;;;;;;;7.82;100.00;101140.34;5041827;28;20038;-70
2024/03/22 00:44:52;;;;;;;3.67;1.65;;;;;;;7.77;100.00;101132.06;5034190;28;20353;-70
2024/03/22 00:47:18;;;;;;;5.47;2.38;;;;;;;7.77;100.00;101126.88;5041021;28;20476;-70
2024/03/22 00:49:43;;;;;;;7.22;2.05;;;;;;;7.73;100.00;101128.03;5044111;28;20033;-70
2024/03/22 00:52:09;;;;;;;6.55;2.45;;;;;;;7.69;100.00;101130.00;5039341;28;20037;-70
2024/03/22 00:54:34;;;;;;;4.05;1.58;;;;;;;7.62;100.00;101124.44;5043196;28;20086;-70
2024/03/22 00:56:59;;;;;;;4.50;1.45;;;;;;;7.70;100.00;101126.47;5030279;28;20073;-69
2024/03/22 00:59:25;;;;;;;8.77;2.20;;;;;;;7.81;100.00;101128.31;5029506;28;20038;-70
2024/03/22 01:01:50;;;;;;;4.63;1.95;;;;;;;7.72;100.00;101131.56;5044444;28;20044;-70
2024/03/22 01:04:16;;;;;;;4.93;1.63;;;;;;;7.65;100.00;101131.16;5038674;28;20043;-70
2024/03/22 01:06:41;;;;;;;4.00;1.38;;;;;;;7.61;100.00;101125.38;5038637;28;20032;-70
2024/03/22 01:09:07;;;;;;;2.85;1.52;;;;;;;7.66;100.00;101130.22;5042553;28;20476;-70
2024/03/22 01:11:32;;;;;;;4.82;1.83;;;;;;;7.78;100.00;101133.72;5037941;28;20038;-70
2024/03/22 01:13:58;;;;;;;3.75;1.58;;;;;;;8.07;100.00;101132.41;5031480;28;20473;-70
2024/03/22 01:16:23;;;;;;;2.75;1.23;;;;;;;8.07;100.00;101137.59;5038326;28;20033;-70
2024/03/22 01:18:49;;;;;;;2.25;1.45;;;;;;;8.18;100.00;101126.44;5030726;28;20025;-70
2024/03/22 01:21:14;;;;;;;3.13;1.60;;;;;;;8.45;100.00;101118.44;5037035;28;20033;-70
2024/03/22 01:23:39;;;;;;;3.25;1.52;;;;;;;8.50;100.00;101111.94;5046545;28;20022;-69
2024/03/22 01:26:05;;;;;;;2.92;0.98;;;;;;;8.47;100.00;101119.13;5031562;28;20025;-70
2024/03/22 01:28:30;;;;;;;4.38;1.20;;;;;;;8.29;100.00;101108.31;5032046;28;20057;-70
2024/03/22 01:30:56;;;;;;;3.33;1.27;;;;;;;8.08;100.00;101107.28;5031245;28;20034;-70
2024/03/22 01:33:21;;;;;;;3.90;1.00;;;;;;;7.96;100.00;101116.84;5030820;28;20074;-69
2024/03/22 01:35:46;;;;;;;1.95;0.85;;;;;;;7.88;100.00;101109.59;5036936;28;20040;-70
2024/03/22 01:38:12;;;;;;;4.13;1.10;;;;;;;7.80;100.00;101124.06;5044732;28;20040;-69
2024/03/22 01:40:37;;;;;;;3.72;1.13;;;;;;;7.74;100.00;101117.53;5042234;28;20071;-69
2024/03/22 01:43:03;;;;;;;2.05;0.90;;;;;;;7.68;100.00;101119.75;5040478;28;20025;-70
2024/03/22 01:45:32;;;;;;;1.92;0.80;;;;;;;7.66;100.00;101118.09;5044370;28;20170;-70
2024/03/22 01:47:59;;;;;;;1.48;0.68;;;;;;;8.50;100.00;101111.13;5050081;28;20025;-69
2024/03/22 01:50:25;;;;;;;1.88;0.80;;;;;;;9.35;100.00;101119.25;5036585;28;20106;-69
2024/03/22 01:52:51;;;;;;;3.20;0.90;;;;;;;9.38;100.00;101117.25;5041016;28;20048;-69
2024/03/22 01:55:18;;;;;;;3.47;0.80;;;;;;;8.99;100.00;101119.38;5049116;28;20032;-69
2024/03/22 01:57:44;;;;;;;1.60;0.70;;;;;;;8.61;100.00;101116.31;5050525;28;20040;-69
2024/03/22 02:00:10;;;;;;;3.08;0.68;;;;;;;8.38;100.00;101122.41;5042254;28;20037;-69
2024/03/22 02:02:35;;;;;;;1.25;0.60;;;;;;;8.22;100.00;101114.91;5040961;28;20129;-70
2024/03/22 02:05:21;;;;;;;2.80;0.80;;;;;;;8.03;100.00;101118.03;5042848;28;20127;-70
2024/03/22 02:07:47;;;;;;;1.33;0.90;;;;;;;7.90;100.00;101115.50;5033791;28;20038;-70
2024/03/22 02:10:14;;;;;;;2.13;0.90;;;;;;;7.79;100.00;101115.44;5038431;28;20042;-70
2024/03/22 02:12:40;;;;;;;4.00;1.08;;;;;;;7.81;100.00;101113.56;5036018;28;20038;-70
2024/03/22 02:15:07;;;;;;;2.42;0.60;;;;;;;8.54;100.00;101108.16;5038017;28;20348;-70
2024/03/22 02:17:33;;;;;;;2.63;0.70;;;;;;;9.22;100.00;101109.00;5039713;28;20481;-70
2024/03/22 02:19:59;;;;;;;2.75;0.70;;;;;;;9.41;100.00;101106.59;5039430;28;20465;-70
2024/03/22 02:22:24;;;;;;;4.20;1.30;;;;;;;9.20;100.00;101106.50;5050623;28;20029;-70
2024/03/22 02:24:50;;;;;;;4.55;2.20;;;;;;;8.84;100.00;101110.19;5037189;28;20627;-70
2024/03/22 02:27:15;;;;;;;4.75;1.85;;;;;;;8.59;100.00;101111.22;5041125;28;20022;-70
2024/03/22 02:29:41;;;;;;;3.90;1.65;;;;;;;8.43;100.00;101105.56;5039628;28;20029;-70
2024/03/22 02:32:06;;;;;;;6.28;2.28;;;;;;;8.32;100.00;101108.94;5042655;28;20071;-70
2024/03/22 02:34:32;;;;;;;4.63;1.75;;;;;;;8.19;100.00;101112.53;5026573;28;20392;-70
2024/03/22 02:36:57;;;;;;;4.60;2.15;;;;;;;8.01;100.00;101121.69;5041067;28;20112;-70
2024/03/22 02:39:23;;;;;;;3.80;1.85;;;;;;;7.86;100.00;101110.66;5041628;28;20040;-70
2024/03/22 02:41:48;;;;;;;5.07;2.40;;;;;;;7.79;100.00;101117.22;5040982;28;20029;-70
2024/03/22 02:44:13;;;;;;;2.75;0.85;;;;;;;8.49;100.00;101114.66;5043012;28;20044;-70
2024/03/22 02:46:39;;;;;;;1.90;0.68;;;;;;;8.93;100.00;101116.47;5041986;28;20040;-70
2024/03/22 02:49:04;;;;;;;1.92;0.88;;;;;;;9.17;100.00;101111.94;5038379;28;20444;-70
2024/03/22 02:51:30;;;;;;;3.13;0.73;;;;;;;9.33;100.00;101114.19;5036713;28;20112;-70
2024/03/22 02:53:55;;;;;;;1.55;0.40;;;;;;;9.38;100.00;101101.66;5039148;28;20033;-70
2024/03/22 02:56:20;;;;;;;4.55;1.30;;;;;;;9.43;100.00;101109.09;5033885;28;20064;-70
2024/03/22 02:58:46;;;;;;;1.95;0.75;;;;;;;9.44;100.00;101108.97;5031701;28;20041;-70
2024/03/22 03:01:11;;;;;;;1.17;0.52;;;;;;;9.49;100.00;101106.81;5030829;28;20399;-70
2024/03/22 03:03:37;;;;;;;1.00;0.40;;;;;;;9.54;100.00;101109.88;5032068;28;20470;-69
2024/03/22 03:06:02;;;;;;;1.48;0.40;;;;;;;9.46;100.00;101104.44;5044379;28;20040;-70
2024/03/22 03:08:27;;;;;;;1.33;0.30;;;;;;;9.39;100.00;101111.09;5047336;28;20068;-70
2024/03/22 03:10:53;;;;;;;1.80;0.45;;;;;;;9.24;100.00;101112.31;5044309;28;20025;-70
2024/03/22 03:13:18;;;;;;;3.90;0.50;;;;;;;8.92;100.00;101118.25;5044752;28;20064;-70
2024/03/22 03:15:44;;;;;;;4.15;1.20;;;;;;;8.73;100.00;101127.53;5048933;28;20037;-70
2024/03/22 03:18:09;;;;;;;4.47;1.83;;;;;;;8.52;100.00;101122.19;5039083;28;20052;-70
2024/03/22 03:20:35;;;;;;;14.00;2.08;;;;;;;8.39;100.00;101114.50;5043443;28;20037;-70
2024/03/22 03:23:01;;;;;;;3.78;1.77;;;;;;;8.21;100.00;101113.25;5046494;28;20086;-70
2024/03/22 03:25:27;;;;;;;9.20;1.92;;;;;;;8.09;100.00;101116.72;5049256;28;20112;-70
2024/03/22 03:27:52;;;;;;;4.10;1.25;;;;;;;7.92;100.00;101118.00;5042210;28;20112;-70
2024/03/22 03:30:18;;;;;;;4.13;2.40;;;;;;;7.80;100.00;101118.88;5041643;28;20040;-70
2024/03/22 03:32:43;;;;;;;9.38;5.22;;;;;;;7.70;100.00;101125.66;5049507;28;20037;-70
2024/03/22 03:35:08;;;;;;;10.20;5.70;;;;;;;7.57;100.00;101116.16;5043853;28;20036;-70
2024/03/22 03:37:34;;;;;;;7.72;4.32;;;;;;;7.69;100.00;101127.41;5044566;28;20465;-70
2024/03/22 03:39:59;;;;;;;6.22;3.85;;;;;;;7.65;100.00;101123.38;5041610;28;20536;-70
2024/03/22 03:42:25;;;;;;;6.90;4.68;;;;;;;7.64;100.00;101125.16;5033183;28;20033;-70
2024/03/22 03:44:50;;;;;;;6.82;1.85;;;;;;;8.01;100.00;101114.72;5040487;28;20040;-69
2024/03/22 03:47:16;;;;;;;3.75;1.55;;;;;;;8.09;100.00;101122.75;5044707;28;20033;-69
2024/03/22 03:49:41;;;;;;;3.88;0.88;;;;;;;8.22;100.00;101120.91;5043237;28;20047;-69
2024/03/22 03:52:06;;;;;;;1.45;0.65;;;;;;;8.41;100.00;101117.00;5038338;28;20037;-70
2024/03/22 03:54:32;;;;;;;1.15;0.60;;;;;;;8.56;100.00;101106.25;5033837;28;20087;-69
2024/03/22 03:56:57;;;;;;;1.98;0.70;;;;;;;8.73;100.00;101114.56;5035107;28;20040;-69
2024/03/22 03:59:23;;;;;;;2.90;0.70;;;;;;;8.81;100.00;101113.03;5033961;28;20464;-70
2024/03/22 04:01:49;;;;;;;2.35;0.32;;;;;;;8.88;100.00;101106.41;5035180;28;20120;-70
2024/03/22 04:04:14;;;;;;;0.98;0.40;;;;;;;8.90;100.00;101109.72;5038084;28;20055;-70
2024/03/22 04:06:40;;;;;;;1.83;0.50;;;;;;;8.83;100.00;101107.72;5040391;28;20108;-70
2024/03/22 04:09:05;;;;;;;2.17;0.50;;;;;;;8.76;100.00;101107.34;5037667;28;20028;-70
2024/03/22 04:11:31;;;;;;;2.08;0.43;;;;;;;8.79;100.00;101112.31;5038778;28;20059;-70
2024/03/22 04:13:56;;;;;;;1.13;0.55;;;;;;;8.83;100.00;101108.53;5039286;28;20117;-70
2024/03/22 04:16:21;;;;;;;1.85;0.38;;;;;;;8.84;100.00;101109.38;5039257;28;20040;-70
2024/03/22 04:18:47;;;;;;;4.97;0.60;;;;;;;8.82;100.00;101112.09;5035564;28;20212;-70
2024/03/22 04:21:12;;;;;;;2.88;0.50;;;;;;;8.78;100.00;101107.25;5032075;28;20041;-70
2024/03/22 04:23:38;;;;;;;3.47;0.40;;;;;;;8.69;100.00;101110.53;5044690;28;20108;-70
2024/03/22 04:26:04;;;;;;;1.92;0.50;;;;;;;8.59;100.00;101113.81;5043411;28;20033;-70
2024/03/22 04:28:30;;;;;;;1.80;0.40;;;;;;;8.57;100.00;101114.88;5042855;28;20108;-70
2024/03/22 04:31:03;;;;;;;2.70;0.50;;;;;;;8.54;100.00;101110.75;5045857;28;20036;-70
2024/03/22 04:33:30;;;;;;;2.35;0.50;;;;;;;8.60;100.00;101106.84;5044182;28;20100;-70
2024/03/22 04:35:56;;;;;;;3.25;0.50;;;;;;;8.65;100.00;101110.75;5045419;28;20033;-70
2024/03/22 04:38:23;;;;;;;1.33;0.20;;;;;;;8.70;100.00;101115.63;5043486;28;20618;-70
2024/03/22 04:40:49;;;;;;;1.45;0.40;;;;;;;8.63;100.00;101120.44;5049865;28;20052;-70
2024/03/22 04:43:15;;;;;;;2.15;0.30;;;;;;;8.55;100.00;101114.16;5048282;28;20079;-70
2024/03/22 04:45:45;;;;;;;2.38;0.30;;;;;;;8.31;100.00;101117.66;5047967;28;20036;-70
2024/03/22 04:48:13;;;;;;;3.28;0.70;;;;;;;8.25;100.00;101117.28;5048399;28;20021;-70
2024/03/22 04:50:38;;;;;;;1.10;0.50;;;;;;;8.41;100.00;101117.81;5048186;28;20060;-70
2024/03/22 04:53:05;;;;;;;1.27;0.40;;;;;;;8.52;100.00;101120.41;5048634;28;20063;-70
2024/03/22 04:55:30;;;;;;;1.30;0.40;;;;;;;8.58;100.00;101126.94;5046369;28;20029;-70
2024/03/22 04:57:55;;;;;;;1.40;0.80;;;;;;;8.55;100.00;101125.38;5049643;28;20044;-70
2024/03/22 05:00:21;;;;;;;3.03;0.70;;;;;;;8.61;100.00;101121.50;5048324;28;20480;-70
2024/03/22 05:02:47;;;;;;;0.73;0.28;;;;;;;8.59;100.00;101115.59;5054726;28;20033;-70
2024/03/22 05:05:13;;;;;;;1.10;0.50;;;;;;;8.52;100.00;101122.19;5048212;28;20095;-70
2024/03/22 05:07:38;;;;;;;6.40;0.70;;;;;;;8.51;100.00;101123.13;5044333;28;20025;-70
2024/03/22 05:10:05;;;;;;;0.98;0.32;;;;;;;8.50;100.00;101127.53;5045113;28;20477;-70
2024/03/22 05:12:30;;;;;;;2.17;0.50;;;;;;;8.54;100.00;101128.09;5049652;28;20039;-70
2024/03/22 05:14:56;;;;;;;1.05;0.40;;;;;;;8.53;100.00;101127.28;5049539;28;20025;-70
2024/03/22 05:17:21;;;;;;;3.78;0.50;;;;;;;8.50;100.00;101126.69;5042125;28;20029;-70
2024/03/22 05:19:47;;;;;;;1.25;0.40;;;;;;;8.43;100.00;101131.53;5044791;28;20029;-70
2024/03/22 05:22:12;;;;;;;1.80;0.60;;;;;;;8.39;100.00;101140.47;5046132;28;20037;-69
2024/03/22 05:24:38;;;;;;;1.15;0.45;;;;;;;8.35;100.00;101131.25;5044310;28;20076;-69
2024/03/22 05:27:04;;;;;;;5.32;0.57;;;;;;;8.35;100.00;101144.25;5043812;28;20170;-69
2024/03/22 05:29:29;;;;;;;1.50;0.40;;;;;;;8.34;100.00;101145.19;5042526;28;20026;-70
2024/03/22 05:31:54;;;;;;;1.75;0.73;;;;;;;8.31;100.00;101143.59;5046164;28;20048;-70
2024/03/22 05:34:20;;;;;;;1.20;0.40;;;;;;;8.30;100.00;101141.13;5046926;28;20543;-70
2024/03/22 05:36:46;;;;;;;4.60;0.40;;;;;;;8.31;100.00;101154.00;5045575;28;20798;-69
2024/03/22 05:39:12;;;;;;;0.77;0.30;;;;;;;8.40;100.00;101152.53;5044853;28;20091;-70
2024/03/22 05:41:38;;;;;;;3.28;0.65;;;;;;;8.47;100.00;101158.09;5042475;28;20417;-70
2024/03/22 05:44:03;;;;;;;1.85;0.70;;;;;;;8.49;100.00;101151.00;5043167;28;20049;-70
2024/03/22 05:46:32;;;;;;;5.45;0.50;;;;;;;8.52;100.00;101149.00;5045509;28;20024;-70
2024/03/22 05:48:58;;;;;;;0.93;0.40;;;;;;;8.55;100.00;101159.16;5044501;28;20029;-70
2024/03/22 05:51:24;;;;;;;0.95;0.30;;;;;;;8.61;100.00;101155.28;5043648;28;20063;-70
2024/03/22 05:53:49;;;;;;;1.80;0.35;;;;;;;8.66;100.00;101147.97;5049380;28;20086;-70
2024/03/22 05:56:15;;;;;;;3.17;0.68;;;;;;;8.71;100.00;101156.25;5044089;28;20041;-70
2024/03/22 05:58:40;;;;;;;1.17;0.30;;;;;;;8.71;100.00;101156.25;5051266;28;20037;-70
2024/03/22 06:01:06;;;;;;;3.03;0.60;;;;;;;8.70;100.00;101159.78;5051446;28;20052;-68
2024/03/22 06:03:31;;;;;;;2.20;0.40;;;;;;;8.74;100.00;101155.19;5051227;28;20029;-70
2024/03/22 06:06:00;;;;;;;1.42;0.60;;;;;;;8.82;99.92;101152.84;5054454;28;20025;-69
2024/03/22 06:08:28;;;;;;;1.52;0.40;;;;;;;8.87;99.32;101161.09;5050348;28;20025;-70
2024/03/22 06:10:58;;;;;;;1.17;0.40;;;;;;;8.88;99.07;101155.78;5050483;28;20069;-70
2024/03/22 06:13:24;;;;;;;1.67;0.45;;;;;;;8.91;98.95;101152.97;5050347;28;20037;-70
2024/03/22 06:15:49;;;;;;;2.75;0.43;;;;;;;8.98;98.31;101158.50;5047074;28;20365;-70
2024/03/22 06:18:15;;;;;;;2.45;0.57;;;;;;;9.08;97.67;101161.22;5050358;28;20087;-70
2024/03/22 06:20:41;;;;;;;4.28;0.43;;;;;;;9.15;96.17;101159.81;5052021;28;20432;-70
2024/03/22 06:23:08;;;;;;;2.42;0.40;;;;;;;9.28;94.63;101160.53;5050233;28;20028;-74
2024/03/22 06:25:33;;;;;;;2.17;0.50;;;;;;;9.35;94.61;101158.28;5051736;28;20020;-70
2024/03/22 06:27:59;;;;;;;1.17;0.30;;;;;;;9.40;94.76;101154.38;5051848;28;20074;-69
2024/03/22 06:30:24;;;;;;;1.08;0.40;;;;;;;9.48;94.44;101154.56;5051197;28;20384;-70
2024/03/22 06:32:50;;;;;;;0.75;0.30;;;;;;;9.61;93.63;101150.06;5044156;28;20132;-69
2024/03/22 06:35:15;;;;;;;1.85;0.63;;;;;;;9.71;92.58;101155.38;5050609;28;20117;-69
2024/03/22 06:37:41;;;;;;;8.63;0.90;;;;;;;9.82;92.86;101149.31;5051320;28;20044;-69
2024/03/22 06:40:07;;;;;;;4.50;0.70;;;;;;;9.94;92.97;101158.72;5048651;28;20116;-69
2024/03/22 06:42:33;;;;;;;5.28;0.70;;;;;;;10.13;91.82;101164.09;5044156;28;20381;-69
2024/03/22 06:44:58;;;;;;;8.40;0.98;;;;;;;10.38;91.49;101162.13;5048584;28;20028;-69
2024/03/22 06:47:24;;;;;;;3.33;0.50;;;;;;;10.58;88.11;101158.69;5046282;28;20087;-69
2024/03/22 06:49:49;;;;;;;3.38;0.40;;;;;;;10.80;87.16;101158.56;5042296;28;20034;-69
2024/03/22 06:52:15;;;;;;;2.25;0.40;;;;;;;10.95;87.47;101165.06;5042032;28;20116;-69
2024/03/22 06:54:41;;;;;;;1.17;0.38;;;;;;;11.05;86.10;101162.50;5042139;28;20039;-69
2024/03/22 06:57:06;;;;;;;1.40;0.30;;;;;;;11.10;85.27;101165.53;5037900;28;20420;-69
2024/03/22 06:59:32;;;;;;;0.70;0.20;;;;;;;11.27;84.47;101164.09;5039090;28;20025;-69
2024/03/22 07:01:57;;;;;;;2.92;0.35;;;;;;;11.41;83.73;101174.16;5042311;28;20033;-69
2024/03/22 07:04:23;;;;;;;1.48;0.30;;;;;;;11.31;83.77;101165.50;5041845;28;20048;-70
2024/03/22 07:06:48;;;;;;;1.60;0.40;;;;;;;11.19;83.95;101169.97;5040715;28;20112;-70
2024/03/22 07:09:14;;;;;;;2.00;0.38;;;;;;;11.19;84.53;101164.75;5044230;28;20087;-71
2024/03/22 07:11:39;;;;;;;1.20;0.35;;;;;;;11.27;84.16;101167.53;5042644;28;20102;-70
2024/03/22 07:14:05;;;;;;;2.47;0.20;;;;;;;11.40;83.35;101167.28;5045233;28;20033;-69
2024/03/22 07:16:30;;;;;;;1.33;0.22;;;;;;;11.58;83.61;101167.47;5041867;28;20111;-69
2024/03/22 07:18:56;;;;;;;2.25;0.43;;;;;;;11.73;83.10;101165.31;5043149;28;20033;-69
2024/03/22 07:21:22;;;;;;;1.67;0.20;;;;;;;11.83;80.97;101168.78;5044167;28;20044;-69
2024/03/22 07:23:47;;;;;;;0.73;0.20;;;;;;;11.95;80.77;101167.69;5038448;28;20029;-69
2024/03/22 07:26:12;;;;;;;3.92;0.40;;;;;;;12.14;79.82;101165.09;5041519;28;20084;-69
2024/03/22 07:28:38;;;;;;;1.50;0.30;;;;;;;12.34;80.96;101162.47;5039573;28;20035;-70
2024/03/22 07:31:03;;;;;;;0.68;0.28;;;;;;;12.56;80.47;101163.00;5044832;28;20393;-70
2024/03/22 07:33:29;;;;;;;2.40;0.30;;;;;;;12.56;79.46;101170.84;5045477;28;20140;-69
2024/03/22 07:35:54;;;;;;;0.95;0.32;;;;;;;12.46;79.25;101167.41;5043158;28;20067;-69
2024/03/22 07:38:20;;;;;;;4.03;0.52;;;;;;;12.40;78.96;101169.75;5047215;28;20033;-69
2024/03/22 07:40:47;;;;;;;1.10;0.30;;;;;;;12.54;79.56;101169.31;5046692;28;20052;-69
2024/03/22 07:43:14;;;;;;;1.17;0.52;;;;;;;12.63;78.30;101166.72;5046441;28;20574;-68
2024/03/22 07:45:40;;;;;;;0.90;0.30;;;;;;;12.81;78.39;101166.78;5047687;28;20037;-69
2024/03/22 07:48:05;;;;;;;0.55;0.25;;;;;;;12.99;78.59;101171.28;5040984;28;20028;-69
2024/03/22 07:50:31;;;;;;;0.98;0.30;;;;;;;13.23;77.83;101184.72;5043768;28;20376;-69
2024/03/22 07:52:56;;;;;;;1.33;0.30;;;;;;;13.35;76.83;101180.94;5049998;28;20029;-69
2024/03/22 07:55:23;;;;;;;2.80;0.38;;;;;;;13.45;74.62;101184.31;5047782;28;20493;-69
2024/03/22 07:57:48;;;;;;;6.13;0.50;;;;;;;13.65;75.16;101186.84;5044075;28;20028;-69
2024/03/22 08:00:14;;;;;;;0.80;0.30;;;;;;;13.77;74.25;101180.41;5043061;28;20044;-69
2024/03/22 08:02:39;;;;;;;2.03;0.30;;;;;;;13.96;72.64;101177.66;5043602;28;20041;-69
2024/03/22 08:05:06;;;;;;;1.42;0.30;;;;;;;14.14;73.33;101172.44;5048830;28;20552;-70
2024/03/22 08:07:31;;;;;;;0.80;0.30;;;;;;;14.26;69.91;101172.03;5041123;28;20024;-70
2024/03/22 08:09:58;;;;;;;0.68;0.20;;;;;;;14.43;71.95;101170.41;5043108;28;20481;-71
2024/03/22 08:12:24;;;;;;;1.40;0.28;;;;;;;14.59;71.09;101172.34;5041531;28;20490;-71
2024/03/22 08:14:50;;;;;;;2.75;0.55;;;;;;;14.59;70.03;101167.09;5046275;28;20033;-71
2024/03/22 08:17:15;;;;;;;1.30;0.30;;;;;;;14.76;69.25;101176.69;5041001;28;20124;-70
2024/03/22 08:19:41;;;;;;;1.30;0.22;;;;;;;14.85;68.55;101175.78;5043466;28;20035;-69
2024/03/22 08:22:06;;;;;;;1.55;0.20;;;;;;;14.93;68.66;101169.75;5042917;28;20052;-69
2024/03/22 08:24:32;;;;;;;0.80;0.20;;;;;;;15.09;68.77;101175.09;5042833;28;20501;-69
2024/03/22 08:26:57;;;;;;;2.40;0.20;;;;;;;15.27;68.32;101175.00;5045907;28;20028;-69
2024/03/22 08:29:22;;;;;;;1.02;0.20;;;;;;;15.54;67.75;101180.03;5040543;28;20070;-69
2024/03/22 08:31:48;;;;;;;0.38;0.10;;;;;;;15.75;69.58;101173.53;5038950;28;20128;-69
2024/03/22 08:34:13;;;;;;;2.03;0.28;;;;;;;15.80;68.70;101177.31;5043627;28;20032;-68
2024/03/22 08:36:39;;;;;;;1.95;0.30;;;;;;;15.83;68.30;101174.38;5032901;28;20029;-69
2024/03/22 08:39:05;;;;;;;1.00;0.20;;;;;;;15.74;65.85;101177.13;5044838;28;20064;-69
2024/03/22 08:41:30;;;;;;;1.10;0.40;;;;;;;15.89;64.20;101170.28;5041648;28;20465;-68
2024/03/22 08:43:57;;;;;;;0.60;0.20;;;;;;;16.16;68.67;101167.34;5042250;28;20037;-69
2024/03/22 08:46:24;;;;;;;1.10;0.20;;;;;;;16.24;69.43;101162.09;5041794;28;20064;-69
2024/03/22 08:48:50;;;;;;;1.33;0.55;;;;;;;16.43;67.87;101160.94;5034650;28;20063;-69
2024/03/22 08:51:15;;;;;;;0.40;0.20;;;;;;;16.55;64.24;101159.59;5039157;28;20505;-69
2024/03/22 08:53:41;;;;;;;0.40;0.20;;;;;;;16.72;67.83;101163.06;5044567;28;20037;-68
2024/03/22 08:56:07;;;;;;;0.63;0.30;;;;;;;16.95;68.53;101160.53;5043543;28;20075;-68
2024/03/22 08:58:33;;;;;;;0.80;0.30;;;;;;;16.83;67.51;101160.06;5048682;28;20031;-68
2024/03/22 09:00:58;;;;;;;0.90;0.10;;;;;;;16.72;60.52;101163.06;5052478;28;20033;-69
2024/03/22 09:03:23;;;;;;;0.40;0.10;;;;;;;16.96;67.34;101153.47;5044487;28;20029;-69
2024/03/22 09:05:53;;;;;;;1.17;0.17;;;;;;;16.98;59.75;101154.13;5048694;28;20119;-69
2024/03/22 09:08:19;;;;;;;0.20;0.10;;;;;;;17.00;60.14;101155.59;5042958;28;20568;-68
2024/03/22 09:10:45;;;;;;;0.82;0.20;;;;;;;16.89;57.60;101150.69;5041832;28;20509;-69
2024/03/22 09:13:12;;;;;;;0.65;0.10;;;;;;;16.94;61.49;101151.00;5044479;28;20021;-69
2024/03/22 09:15:37;;;;;;;0.30;0.10;;;;;;;16.83;67.44;101152.19;5041845;28;20037;-69
2024/03/22 09:18:03;;;;;;;1.65;0.10;;;;;;;16.68;57.50;101135.44;5047373;28;20032;-69
2024/03/22 09:20:28;;;;;;;1.27;0.20;;;;;;;16.69;65.73;101142.34;5046483;28;20464;-70
2024/03/22 09:22:54;;;;;;;0.80;0.20;;;;;;;16.71;66.26;101134.28;5050865;28;20045;-70
2024/03/22 09:25:19;;;;;;;0.50;0.10;;;;;;;16.82;65.28;101140.00;5043155;28;20065;-70
2024/03/22 09:27:45;;;;;;;0.47;0.20;;;;;;;16.80;65.00;101125.38;5049889;28;20025;-71
2024/03/22 09:30:11;;;;;;;0.40;0.15;;;;;;;16.71;63.45;101137.72;5045372;28;20040;-70
2024/03/22 09:32:37;;;;;;;0.52;0.17;;;;;;;16.57;66.36;101122.59;5050746;28;20646;-70
2024/03/22 09:35:02;;;;;;;0.40;0.10;;;;;;;16.47;64.70;101121.97;5044262;28;20129;-69
2024/03/22 09:37:28;;;;;;;0.88;0.30;;;;;;;16.46;65.56;101117.69;5050476;28;20032;-71
2024/03/22 09:39:53;;;;;;;1.70;0.20;;;;;;;16.47;65.42;101124.59;5049547;28;20024;-70
2024/03/22 09:42:23;;;;;;;1.83;0.20;;;;;;;16.38;64.74;101109.81;5047608;28;20116;-69
2024/03/22 09:44:50;;;;;;;2.15;0.10;;;;;;;16.38;65.17;101110.66;5050146;28;20356;-70
2024/03/22 09:47:16;;;;;;;0.38;0.10;;;;;;;16.36;64.82;101109.16;5049296;28;20419;-70
2024/03/22 09:49:46;;;;;;;0.32;0.10;;;;;;;16.38;64.94;101105.38;5048093;28;20025;-70
2024/03/22 09:52:14;;;;;;;0.70;0.17;;;;;;;16.47;63.97;101104.38;5047596;28;20036;-70
2024/03/22 09:54:43;;;;;;;0.38;0.10;;;;;;;16.42;64.44;101106.69;5046288;28;20485;-71
2024/03/22 09:57:17;;;;;;;0.32;0.10;;;;;;;16.41;62.07;101098.97;5039339;28;20038;-70
2024/03/22 09:59:46;;;;;;;0.57;0.10;;;;;;;16.48;64.40;101094.69;5038609;28;20090;-70
2024/03/22 10:02:13;;;;;;;1.02;0.10;;;;;;;16.53;64.82;101087.13;5043610;28;20067;-71
2024/03/22 10:04:41;;;;;;;0.20;0.10;;;;;;;16.53;61.63;101087.13;5041934;28;20033;-70
2024/03/22 10:07:10;;;;;;;0.73;0.13;;;;;;;16.49;63.54;101084.00;5038821;28;20025;-70
2024/03/22 10:09:36;;;;;;;0.45;0.13;;;;;;;16.41;63.03;101080.56;5042225;28;20128;-70
2024/03/22 10:12:03;;;;;;;2.78;0.10;;;;;;;16.46;62.52;101076.44;5043524;28;20116;-70
2024/03/22 10:14:29;;;;;;;0.95;0.10;;;;;;;16.54;62.85;101078.25;5043869;28;20037;-70
2024/03/22 10:16:55;;;;;;;0.52;0.20;;;;;;;16.55;63.31;101074.59;5036176;28;20059;-70
2024/03/22 10:19:21;;;;;;;0.30;0.20;;;;;;;16.54;63.46;101075.59;5041584;28;20091;-71
2024/03/22 10:22:06;;;;;;;0.57;0.15;;;;;;;16.66;56.32;101071.63;5041639;28;20033;-71
2024/03/22 10:24:35;;;;;;;0.20;0.10;;;;;;;16.77;61.48;101073.09;5039616;28;20041;-70
2024/03/22 10:27:01;;;;;;;1.90;0.20;;;;;;;16.68;63.48;101074.09;5040197;28;20053;-70
2024/03/22 10:29:27;;;;;;;0.40;0.10;;;;;;;16.59;63.69;101068.00;5042284;28;20037;-68
2024/03/22 10:31:55;;;;;;;0.57;0.10;;;;;;;16.60;63.37;101061.75;5040347;28;20033;-68
2024/03/22 10:34:22;;;;;;;0.45;0.10;;;;;;;16.63;59.04;101065.84;5041328;28;20030;-68
2024/03/22 10:36:48;;;;;;;2.35;0.10;;;;;;;16.70;61.84;101059.78;5040508;28;20028;-68
2024/03/22 10:39:17;;;;;;;1.58;0.43;;;;;;;16.59;61.79;101058.31;5044683;28;20172;-68
2024/03/22 10:41:44;;;;;;;1.20;0.20;;;;;;;16.59;61.98;101055.66;5041791;28;20033;-68
2024/03/22 10:44:10;;;;;;;0.75;0.20;;;;;;;16.76;60.79;101055.66;5040040;28;20052;-68
2024/03/22 10:46:35;;;;;;;0.50;0.10;;;;;;;17.00;56.31;101052.94;5040907;28;20029;-68
2024/03/22 10:49:04;;;;;;;0.40;0.10;;;;;;;17.25;59.14;101048.34;5042911;28;20124;-68
2024/03/22 10:51:32;;;;;;;0.77;0.20;;;;;;;17.27;59.86;101045.53;5046290;28;20040;-68
2024/03/22 10:53:59;;;;;;;3.03;0.20;;;;;;;17.12;60.67;101046.25;5037879;28;20108;-68
2024/03/22 10:56:25;;;;;;;0.32;0.10;;;;;;;16.96;60.91;101045.53;5042079;28;20025;-68
2024/03/22 10:58:52;;;;;;;0.20;0.10;;;;;;;16.87;59.94;101035.06;5039534;28;20025;-68
2024/03/22 11:01:25;;;;;;;1.15;0.10;;;;;;;16.97;58.25;101039.28;5040940;28;20044;-68
2024/03/22 11:03:51;;;;;;;1.10;0.10;;;;;;;16.95;57.07;101031.56;5040120;28;20520;-68
2024/03/22 11:06:20;;;;;;;1.00;0.13;;;;;;;16.96;58.74;101035.84;5040874;28;20128;-68
2024/03/22 11:08:51;;;;;;;0.80;0.10;;;;;;;16.85;59.46;101033.59;5040802;28;20021;-68
2024/03/22 11:11:21;;;;;;;0.40;0.20;;;;;;;16.86;58.12;101022.06;5041273;28;20029;-68
2024/03/22 11:13:50;;;;;;;3.45;0.20;;;;;;;16.94;58.25;101018.56;5046822;28;20036;-68
2024/03/22 11:16:16;;;;;;;0.25;0.10;;;;;;;16.88;58.37;101014.81;5040352;28;20033;-68
2024/03/22 11:18:42;;;;;;;0.57;0.10;;;;;;;16.96;58.50;101014.78;5041175;28;20041;-68
2024/03/22 11:21:08;;;;;;;0.17;0.10;;;;;;;17.15;57.94;101006.44;5034932;28;20033;-68